Kure, Japan

1:44 AM JST on December 21, 2014 (GMT +0900)
Iwakuni Marine Corps Air Station | Change Station
CLOSE
Current Station
Airport
Location: Iwakuni MCAS,
Elevation: 7 ft
Nearby Weather Stations

Elev 7 ft 34.14 °N, 132.24 °E | Updated 49 minutes ago

Scattered Clouds
Scattered Clouds
40 °F
Feels Like 36 °F
N
6
Wind Variable Wind from West

Today
High -- | Low -- °F
--% Chance of Precip.
Yesterday
High -- | Low -- °F
Precip. -- in
7:11 AM 5:03 PM
Waning Crescent, 2% visible
Pressure 30.09 in
Visibility 6.2 miles
Clouds Few 2500 ft
Scattered Clouds 5000 ft
Windchill 36 °F
Dew Point 34 °F
Humidity 79%
Rainfall 0.00 in
Snow Depth Not available.
UV 0 out of 12
Pollen Not available.
Air Quality Not available.
Flu Activity Not available.
METAR RJOI 201555Z 27005KT 9999 FEW025 SCT050 04/01 A3009 RMK SLP189 T00440011

More Conditions Fewer Conditions

Pressure 30.09 in
Visibility 6.2 miles
Clouds Few 2500 ft
Scattered Clouds 5000 ft
Windchill 36 °F
Dew Point 34 °F
Humidity 79%
Rainfall 0.00 in
Snow Depth Not available.
UV 0 out of 12
Pollen Not available.
Air Quality Not available.
Flu Activity Not available.
METAR RJOI 201555Z 27005KT 9999 FEW025 SCT050 04/01 A3009 RMK SLP189 T00440011

More Conditions Fewer Conditions

10-Day Weather Forecast

Almanac

Astronomy

Dec. 21, 2014 Rise Set
Actual Time
Civil Twilight
Nautical Twilight
Astronomical Twilight
Moon
Length of Visible Light
Length of Day
Tomorrow will be .
, % of the Moon is Illuminated

Today's Extremes

Country Highs Country Lows

Community

WunderPhotos

Upload Photos

1,779,221 photos uploaded!

WunderBlogs® & News

Nearby

Air Quality

  Air Quality AQ Index Pollutant
Not available.

Snow Depth

Station Depth Elevation

Earthquake Activity

City Distance Mag. Time & Date
Minimum magnitude displayed is 2.5.

Coastal Water Temperatures

Place Temperature

Nearby Weather Stations